sensor_id;sensor_type;location;lat;lon;timestamp;P1;durP1;ratioP1;P2;durP2;ratioP2
38783;SDS011;24531;45.502;12.238;2023-02-11T00:00:13;63.17;;;32.75;;
38783;SDS011;24531;45.502;12.238;2023-02-11T00:02:39;56.72;;;30.83;;
38783;SDS011;24531;45.502;12.238;2023-02-11T00:05:04;60.92;;;33.08;;
38783;SDS011;24531;45.502;12.238;2023-02-11T00:07:31;55.00;;;30.80;;
38783;SDS011;24531;45.502;12.238;2023-02-11T00:09:57;58.85;;;32.80;;
38783;SDS011;24531;45.502;12.238;2023-02-11T00:12:23;54.83;;;30.92;;
38783;SDS011;24531;45.502;12.238;2023-02-11T00:14:49;55.15;;;31.13;;
38783;SDS011;24531;45.502;12.238;2023-02-11T00:17:15;56.45;;;32.70;;
38783;SDS011;24531;45.502;12.238;2023-02-11T00:19:41;53.58;;;30.00;;
38783;SDS011;24531;45.502;12.238;2023-02-11T00:22:06;58.65;;;33.22;;
38783;SDS011;24531;45.502;12.238;2023-02-11T00:24:32;57.08;;;33.05;;
38783;SDS011;24531;45.502;12.238;2023-02-11T00:26:58;55.53;;;30.95;;
38783;SDS011;24531;45.502;12.238;2023-02-11T00:29:23;56.65;;;31.63;;
38783;SDS011;24531;45.502;12.238;2023-02-11T00:31:49;58.25;;;32.58;;
38783;SDS011;24531;45.502;12.238;2023-02-11T00:34:15;61.55;;;32.58;;
38783;SDS011;24531;45.502;12.238;2023-02-11T00:36:40;57.13;;;33.35;;
38783;SDS011;24531;45.502;12.238;2023-02-11T00:39:06;51.17;;;30.92;;
38783;SDS011;24531;45.502;12.238;2023-02-11T00:41:32;57.67;;;31.27;;
38783;SDS011;24531;45.502;12.238;2023-02-11T00:43:59;59.75;;;32.47;;
38783;SDS011;24531;45.502;12.238;2023-02-11T00:46:25;58.08;;;32.40;;
38783;SDS011;24531;45.502;12.238;2023-02-11T00:48:51;56.97;;;33.03;;
38783;SDS011;24531;45.502;12.238;2023-02-11T00:51:19;59.10;;;32.65;;
38783;SDS011;24531;45.502;12.238;2023-02-11T00:53:45;60.17;;;34.13;;
38783;SDS011;24531;45.502;12.238;2023-02-11T00:56:10;65.03;;;35.08;;
38783;SDS011;24531;45.502;12.238;2023-02-11T00:58:36;56.95;;;33.53;;
38783;SDS011;24531;45.502;12.238;2023-02-11T01:01:02;51.45;;;32.35;;
38783;SDS011;24531;45.502;12.238;2023-02-11T01:03:28;65.97;;;35.17;;
38783;SDS011;24531;45.502;12.238;2023-02-11T01:05:54;62.00;;;34.92;;
38783;SDS011;24531;45.502;12.238;2023-02-11T01:08:20;56.10;;;31.95;;
38783;SDS011;24531;45.502;12.238;2023-02-11T01:10:59;59.78;;;33.92;;
38783;SDS011;24531;45.502;12.238;2023-02-11T01:13:27;64.65;;;33.95;;
38783;SDS011;24531;45.502;12.238;2023-02-11T01:15:54;56.33;;;34.35;;
38783;SDS011;24531;45.502;12.238;2023-02-11T01:18:19;65.78;;;35.67;;
38783;SDS011;24531;45.502;12.238;2023-02-11T01:20:45;65.90;;;34.08;;
38783;SDS011;24531;45.502;12.238;2023-02-11T01:23:11;68.25;;;33.95;;
38783;SDS011;24531;45.502;12.238;2023-02-11T01:25:36;59.70;;;33.17;;
38783;SDS011;24531;45.502;12.238;2023-02-11T01:28:02;62.65;;;34.80;;
38783;SDS011;24531;45.502;12.238;2023-02-11T01:30:28;55.33;;;31.25;;
38783;SDS011;24531;45.502;12.238;2023-02-11T01:32:53;59.72;;;33.47;;
38783;SDS011;24531;45.502;12.238;2023-02-11T01:35:19;53.53;;;32.13;;
38783;SDS011;24531;45.502;12.238;2023-02-11T01:37:44;59.20;;;32.13;;
38783;SDS011;24531;45.502;12.238;2023-02-11T01:40:14;57.58;;;34.92;;
38783;SDS011;24531;45.502;12.238;2023-02-11T01:42:41;54.83;;;32.67;;
38783;SDS011;24531;45.502;12.238;2023-02-11T01:48:14;61.65;;;32.75;;
38783;SDS011;24531;45.502;12.238;2023-02-11T01:50:43;59.63;;;32.25;;
38783;SDS011;24531;45.502;12.238;2023-02-11T01:53:12;60.10;;;33.60;;
38783;SDS011;24531;45.502;12.238;2023-02-11T01:55:56;58.40;;;32.55;;
38783;SDS011;24531;45.502;12.238;2023-02-11T01:58:42;58.67;;;33.95;;
38783;SDS011;24531;45.502;12.238;2023-02-11T02:01:10;63.00;;;34.65;;
38783;SDS011;24531;45.502;12.238;2023-02-11T02:03:40;63.67;;;33.58;;
38783;SDS011;24531;45.502;12.238;2023-02-11T02:06:14;59.60;;;32.22;;
38783;SDS011;24531;45.502;12.238;2023-02-11T02:09:26;62.22;;;32.17;;
38783;SDS011;24531;45.502;12.238;2023-02-11T02:11:45;54.88;;;32.00;;
38783;SDS011;24531;45.502;12.238;2023-02-11T02:14:11;56.55;;;31.20;;
38783;SDS011;24531;45.502;12.238;2023-02-11T02:16:37;54.47;;;31.40;;
38783;SDS011;24531;45.502;12.238;2023-02-11T02:27:33;52.20;;;31.63;;
38783;SDS011;24531;45.502;12.238;2023-02-11T02:33:04;58.10;;;30.90;;
38783;SDS011;24531;45.502;12.238;2023-02-11T02:35:41;59.03;;;34.03;;
38783;SDS011;24531;45.502;12.238;2023-02-11T02:38:19;52.88;;;30.25;;
38783;SDS011;24531;45.502;12.238;2023-02-11T02:40:52;43.05;;;25.40;;
38783;SDS011;24531;45.502;12.238;2023-02-11T02:43:26;55.67;;;29.88;;
38783;SDS011;24531;45.502;12.238;2023-02-11T02:45:54;54.95;;;31.13;;
38783;SDS011;24531;45.502;12.238;2023-02-11T02:48:26;52.10;;;30.90;;
38783;SDS011;24531;45.502;12.238;2023-02-11T02:53:43;49.95;;;29.27;;
38783;SDS011;24531;45.502;12.238;2023-02-11T02:59:07;56.60;;;30.67;;
38783;SDS011;24531;45.502;12.238;2023-02-11T03:04:20;54.40;;;29.88;;
38783;SDS011;24531;45.502;12.238;2023-02-11T03:06:56;49.60;;;29.05;;
38783;SDS011;24531;45.502;12.238;2023-02-11T03:09:32;50.97;;;27.05;;
38783;SDS011;24531;45.502;12.238;2023-02-11T03:12:14;48.25;;;29.20;;
38783;SDS011;24531;45.502;12.238;2023-02-11T03:14:40;49.05;;;29.08;;
38783;SDS011;24531;45.502;12.238;2023-02-11T03:17:06;49.00;;;28.25;;
38783;SDS011;24531;45.502;12.238;2023-02-11T03:19:35;50.30;;;28.20;;
38783;SDS011;24531;45.502;12.238;2023-02-11T03:22:06;47.85;;;28.88;;
38783;SDS011;24531;45.502;12.238;2023-02-11T03:24:38;50.70;;;28.85;;
38783;SDS011;24531;45.502;12.238;2023-02-11T03:27:08;48.17;;;27.70;;
38783;SDS011;24531;45.502;12.238;2023-02-11T03:32:41;55.28;;;29.55;;
38783;SDS011;24531;45.502;12.238;2023-02-11T03:35:17;49.53;;;29.17;;
38783;SDS011;24531;45.502;12.238;2023-02-11T03:37:48;48.88;;;27.92;;
38783;SDS011;24531;45.502;12.238;2023-02-11T03:40:20;48.15;;;27.33;;
38783;SDS011;24531;45.502;12.238;2023-02-11T03:42:56;54.50;;;26.42;;
38783;SDS011;24531;45.502;12.238;2023-02-11T03:45:24;43.35;;;26.40;;
38783;SDS011;24531;45.502;12.238;2023-02-11T03:47:53;52.72;;;28.27;;
38783;SDS011;24531;45.502;12.238;2023-02-11T03:50:22;45.55;;;26.30;;
38783;SDS011;24531;45.502;12.238;2023-02-11T03:52:50;47.30;;;28.48;;
38783;SDS011;24531;45.502;12.238;2023-02-11T03:55:16;47.88;;;28.17;;
38783;SDS011;24531;45.502;12.238;2023-02-11T03:57:45;45.83;;;27.85;;
38783;SDS011;24531;45.502;12.238;2023-02-11T04:00:11;60.95;;;30.50;;
38783;SDS011;24531;45.502;12.238;2023-02-11T04:02:38;50.10;;;28.92;;
38783;SDS011;24531;45.502;12.238;2023-02-11T04:05:04;49.03;;;27.98;;
38783;SDS011;24531;45.502;12.238;2023-02-11T04:07:31;49.95;;;28.67;;
38783;SDS011;24531;45.502;12.238;2023-02-11T04:09:57;53.30;;;29.27;;
38783;SDS011;24531;45.502;12.238;2023-02-11T04:12:23;59.50;;;31.25;;
38783;SDS011;24531;45.502;12.238;2023-02-11T04:14:48;54.35;;;30.73;;
38783;SDS011;24531;45.502;12.238;2023-02-11T04:17:14;61.28;;;34.25;;
38783;SDS011;24531;45.502;12.238;2023-02-11T04:19:40;57.95;;;32.30;;
38783;SDS011;24531;45.502;12.238;2023-02-11T04:22:05;59.40;;;32.97;;
38783;SDS011;24531;45.502;12.238;2023-02-11T04:24:31;63.35;;;33.50;;
38783;SDS011;24531;45.502;12.238;2023-02-11T04:26:58;57.97;;;31.92;;
38783;SDS011;24531;45.502;12.238;2023-02-11T04:29:23;62.88;;;33.30;;
38783;SDS011;24531;45.502;12.238;2023-02-11T04:31:49;55.35;;;32.42;;
38783;SDS011;24531;45.502;12.238;2023-02-11T04:34:16;55.60;;;32.47;;
38783;SDS011;24531;45.502;12.238;2023-02-11T04:36:42;52.50;;;31.92;;
38783;SDS011;24531;45.502;12.238;2023-02-11T04:39:07;58.97;;;33.05;;
38783;SDS011;24531;45.502;12.238;2023-02-11T04:41:33;65.10;;;34.50;;
38783;SDS011;24531;45.502;12.238;2023-02-11T04:43:59;63.35;;;34.60;;
38783;SDS011;24531;45.502;12.238;2023-02-11T04:46:24;73.30;;;35.53;;
38783;SDS011;24531;45.502;12.238;2023-02-11T04:48:50;58.47;;;31.90;;
38783;SDS011;24531;45.502;12.238;2023-02-11T04:51:16;55.30;;;31.67;;
38783;SDS011;24531;45.502;12.238;2023-02-11T04:53:41;57.70;;;32.70;;
38783;SDS011;24531;45.502;12.238;2023-02-11T04:56:07;59.70;;;33.85;;
38783;SDS011;24531;45.502;12.238;2023-02-11T04:58:33;60.55;;;32.92;;
38783;SDS011;24531;45.502;12.238;2023-02-11T05:01:11;58.50;;;32.63;;
38783;SDS011;24531;45.502;12.238;2023-02-11T05:03:38;56.65;;;32.88;;
38783;SDS011;24531;45.502;12.238;2023-02-11T05:06:04;61.03;;;32.58;;
38783;SDS011;24531;45.502;12.238;2023-02-11T05:08:30;61.67;;;34.47;;
38783;SDS011;24531;45.502;12.238;2023-02-11T05:10:56;63.42;;;34.65;;
38783;SDS011;24531;45.502;12.238;2023-02-11T05:13:22;59.90;;;33.08;;
38783;SDS011;24531;45.502;12.238;2023-02-11T05:15:47;58.53;;;33.05;;
38783;SDS011;24531;45.502;12.238;2023-02-11T05:18:13;65.80;;;32.83;;
38783;SDS011;24531;45.502;12.238;2023-02-11T05:20:42;59.53;;;33.58;;
38783;SDS011;24531;45.502;12.238;2023-02-11T05:23:08;62.70;;;33.47;;
38783;SDS011;24531;45.502;12.238;2023-02-11T05:25:35;56.42;;;32.35;;
38783;SDS011;24531;45.502;12.238;2023-02-11T05:28:00;58.85;;;31.88;;
38783;SDS011;24531;45.502;12.238;2023-02-11T05:30:26;56.80;;;33.53;;
38783;SDS011;24531;45.502;12.238;2023-02-11T05:32:52;58.30;;;33.67;;
38783;SDS011;24531;45.502;12.238;2023-02-11T05:35:18;68.78;;;32.35;;
38783;SDS011;24531;45.502;12.238;2023-02-11T05:37:44;59.58;;;33.03;;
38783;SDS011;24531;45.502;12.238;2023-02-11T05:40:09;64.50;;;33.42;;
38783;SDS011;24531;45.502;12.238;2023-02-11T05:42:35;58.17;;;32.20;;
38783;SDS011;24531;45.502;12.238;2023-02-11T05:45:01;57.80;;;32.40;;
38783;SDS011;24531;45.502;12.238;2023-02-11T05:47:27;59.78;;;33.28;;
38783;SDS011;24531;45.502;12.238;2023-02-11T05:49:52;57.85;;;31.75;;
38783;SDS011;24531;45.502;12.238;2023-02-11T05:52:19;57.28;;;31.65;;
38783;SDS011;24531;45.502;12.238;2023-02-11T05:54:45;55.80;;;31.13;;
38783;SDS011;24531;45.502;12.238;2023-02-11T05:57:11;54.90;;;30.33;;
38783;SDS011;24531;45.502;12.238;2023-02-11T05:59:36;58.90;;;33.78;;
38783;SDS011;24531;45.502;12.238;2023-02-11T06:02:02;58.92;;;32.10;;
38783;SDS011;24531;45.502;12.238;2023-02-11T06:04:28;53.05;;;30.52;;
38783;SDS011;24531;45.502;12.238;2023-02-11T06:06:54;55.85;;;32.90;;
38783;SDS011;24531;45.502;12.238;2023-02-11T06:09:20;55.70;;;30.83;;
38783;SDS011;24531;45.502;12.238;2023-02-11T06:11:46;56.17;;;32.75;;
38783;SDS011;24531;45.502;12.238;2023-02-11T06:14:11;60.53;;;33.08;;
38783;SDS011;24531;45.502;12.238;2023-02-11T06:16:38;57.75;;;32.75;;
38783;SDS011;24531;45.502;12.238;2023-02-11T06:19:03;62.67;;;33.83;;
38783;SDS011;24531;45.502;12.238;2023-02-11T06:21:29;60.83;;;32.17;;
38783;SDS011;24531;45.502;12.238;2023-02-11T06:23:55;58.53;;;32.22;;
38783;SDS011;24531;45.502;12.238;2023-02-11T06:26:21;57.03;;;33.88;;
38783;SDS011;24531;45.502;12.238;2023-02-11T06:28:47;57.90;;;31.88;;
38783;SDS011;24531;45.502;12.238;2023-02-11T06:31:13;59.28;;;32.78;;
38783;SDS011;24531;45.502;12.238;2023-02-11T06:33:39;57.00;;;32.67;;
38783;SDS011;24531;45.502;12.238;2023-02-11T06:36:24;52.97;;;30.75;;
38783;SDS011;24531;45.502;12.238;2023-02-11T06:38:49;47.40;;;28.30;;
38783;SDS011;24531;45.502;12.238;2023-02-11T06:41:16;51.53;;;28.38;;
38783;SDS011;24531;45.502;12.238;2023-02-11T06:43:44;51.95;;;31.05;;
38783;SDS011;24531;45.502;12.238;2023-02-11T06:46:10;56.72;;;30.77;;
38783;SDS011;24531;45.502;12.238;2023-02-11T06:48:36;53.30;;;29.23;;
38783;SDS011;24531;45.502;12.238;2023-02-11T06:51:06;56.10;;;30.20;;
38783;SDS011;24531;45.502;12.238;2023-02-11T06:53:37;59.40;;;31.58;;
38783;SDS011;24531;45.502;12.238;2023-02-11T06:56:05;57.38;;;30.75;;
38783;SDS011;24531;45.502;12.238;2023-02-11T06:58:33;55.08;;;29.80;;
38783;SDS011;24531;45.502;12.238;2023-02-11T07:00:59;57.33;;;31.60;;
38783;SDS011;24531;45.502;12.238;2023-02-11T07:03:27;58.08;;;31.98;;
38783;SDS011;24531;45.502;12.238;2023-02-11T07:05:53;51.42;;;29.25;;
38783;SDS011;24531;45.502;12.238;2023-02-11T07:08:18;87.90;;;42.15;;
38783;SDS011;24531;45.502;12.238;2023-02-11T07:10:44;68.10;;;36.92;;
38783;SDS011;24531;45.502;12.238;2023-02-11T07:13:09;70.55;;;35.40;;
38783;SDS011;24531;45.502;12.238;2023-02-11T07:15:35;73.85;;;33.55;;
38783;SDS011;24531;45.502;12.238;2023-02-11T07:18:02;72.93;;;37.30;;
38783;SDS011;24531;45.502;12.238;2023-02-11T07:20:28;62.72;;;34.85;;
38783;SDS011;24531;45.502;12.238;2023-02-11T07:22:53;65.93;;;33.17;;
38783;SDS011;24531;45.502;12.238;2023-02-11T07:25:19;131.70;;;66.10;;
38783;SDS011;24531;45.502;12.238;2023-02-11T07:27:45;73.10;;;38.05;;
38783;SDS011;24531;45.502;12.238;2023-02-11T07:30:11;58.97;;;31.75;;
38783;SDS011;24531;45.502;12.238;2023-02-11T07:32:37;69.57;;;36.05;;
38783;SDS011;24531;45.502;12.238;2023-02-11T07:35:03;55.67;;;31.83;;
38783;SDS011;24531;45.502;12.238;2023-02-11T07:37:28;45.63;;;29.92;;
38783;SDS011;24531;45.502;12.238;2023-02-11T07:39:54;62.30;;;37.63;;
38783;SDS011;24531;45.502;12.238;2023-02-11T07:42:20;49.22;;;30.58;;
38783;SDS011;24531;45.502;12.238;2023-02-11T07:44:46;47.90;;;28.52;;
38783;SDS011;24531;45.502;12.238;2023-02-11T07:47:11;53.40;;;30.15;;
38783;SDS011;24531;45.502;12.238;2023-02-11T07:49:37;81.50;;;46.03;;
38783;SDS011;24531;45.502;12.238;2023-02-11T07:52:02;58.47;;;31.13;;
38783;SDS011;24531;45.502;12.238;2023-02-11T07:54:28;48.15;;;28.52;;
38783;SDS011;24531;45.502;12.238;2023-02-11T07:56:54;42.45;;;27.85;;
38783;SDS011;24531;45.502;12.238;2023-02-11T07:59:19;46.05;;;28.15;;
38783;SDS011;24531;45.502;12.238;2023-02-11T08:01:45;43.03;;;28.52;;
38783;SDS011;24531;45.502;12.238;2023-02-11T08:04:10;47.40;;;29.38;;
38783;SDS011;24531;45.502;12.238;2023-02-11T08:06:39;38.97;;;27.05;;
38783;SDS011;24531;45.502;12.238;2023-02-11T08:09:06;39.33;;;26.73;;
38783;SDS011;24531;45.502;12.238;2023-02-11T08:11:33;45.10;;;27.20;;
38783;SDS011;24531;45.502;12.238;2023-02-11T08:13:59;37.92;;;26.52;;
38783;SDS011;24531;45.502;12.238;2023-02-11T08:16:27;48.00;;;28.63;;
38783;SDS011;24531;45.502;12.238;2023-02-11T08:18:54;47.00;;;28.52;;
38783;SDS011;24531;45.502;12.238;2023-02-11T08:21:21;44.78;;;28.13;;
38783;SDS011;24531;45.502;12.238;2023-02-11T08:23:47;45.55;;;28.30;;
38783;SDS011;24531;45.502;12.238;2023-02-11T08:26:15;40.83;;;28.60;;
38783;SDS011;24531;45.502;12.238;2023-02-11T08:28:43;42.35;;;28.55;;
38783;SDS011;24531;45.502;12.238;2023-02-11T08:31:20;43.17;;;27.70;;
38783;SDS011;24531;45.502;12.238;2023-02-11T08:33:47;43.03;;;27.88;;
38783;SDS011;24531;45.502;12.238;2023-02-11T08:36:14;44.10;;;26.35;;
38783;SDS011;24531;45.502;12.238;2023-02-11T08:38:41;42.80;;;25.98;;
38783;SDS011;24531;45.502;12.238;2023-02-11T08:41:07;38.78;;;24.75;;
38783;SDS011;24531;45.502;12.238;2023-02-11T08:43:34;36.85;;;23.00;;
38783;SDS011;24531;45.502;12.238;2023-02-11T08:46:00;37.22;;;23.92;;
38783;SDS011;24531;45.502;12.238;2023-02-11T08:48:27;37.95;;;23.45;;
38783;SDS011;24531;45.502;12.238;2023-02-11T08:50:53;35.25;;;22.95;;
38783;SDS011;24531;45.502;12.238;2023-02-11T08:53:19;39.22;;;21.95;;
38783;SDS011;24531;45.502;12.238;2023-02-11T08:55:49;36.67;;;24.02;;
38783;SDS011;24531;45.502;12.238;2023-02-11T08:58:16;38.00;;;24.77;;
38783;SDS011;24531;45.502;12.238;2023-02-11T09:00:41;45.03;;;22.08;;
38783;SDS011;24531;45.502;12.238;2023-02-11T09:03:09;33.70;;;21.48;;
38783;SDS011;24531;45.502;12.238;2023-02-11T09:05:39;33.15;;;20.90;;
38783;SDS011;24531;45.502;12.238;2023-02-11T09:10:34;30.70;;;19.58;;
38783;SDS011;24531;45.502;12.238;2023-02-11T09:13:00;32.30;;;19.85;;
38783;SDS011;24531;45.502;12.238;2023-02-11T09:15:25;33.83;;;18.92;;
38783;SDS011;24531;45.502;12.238;2023-02-11T09:17:51;29.20;;;19.45;;
38783;SDS011;24531;45.502;12.238;2023-02-11T09:20:16;34.75;;;20.17;;
38783;SDS011;24531;45.502;12.238;2023-02-11T09:22:42;34.50;;;19.20;;
38783;SDS011;24531;45.502;12.238;2023-02-11T09:25:09;32.47;;;20.73;;
38783;SDS011;24531;45.502;12.238;2023-02-11T09:27:35;26.35;;;17.38;;
38783;SDS011;24531;45.502;12.238;2023-02-11T09:30:01;29.48;;;17.23;;
38783;SDS011;24531;45.502;12.238;2023-02-11T09:32:26;27.70;;;17.88;;
38783;SDS011;24531;45.502;12.238;2023-02-11T09:34:52;26.92;;;17.20;;
38783;SDS011;24531;45.502;12.238;2023-02-11T09:37:18;28.88;;;19.30;;
38783;SDS011;24531;45.502;12.238;2023-02-11T09:39:43;28.63;;;19.90;;
38783;SDS011;24531;45.502;12.238;2023-02-11T09:42:24;28.55;;;19.13;;
38783;SDS011;24531;45.502;12.238;2023-02-11T09:45:02;24.27;;;17.73;;
38783;SDS011;24531;45.502;12.238;2023-02-11T09:47:32;30.23;;;18.95;;
38783;SDS011;24531;45.502;12.238;2023-02-11T09:50:01;29.70;;;19.20;;
38783;SDS011;24531;45.502;12.238;2023-02-11T09:52:36;31.20;;;19.90;;
38783;SDS011;24531;45.502;12.238;2023-02-11T09:55:26;27.80;;;20.17;;
38783;SDS011;24531;45.502;12.238;2023-02-11T09:57:54;30.97;;;16.67;;
38783;SDS011;24531;45.502;12.238;2023-02-11T10:00:22;36.28;;;22.33;;
38783;SDS011;24531;45.502;12.238;2023-02-11T10:05:38;39.00;;;24.75;;
38783;SDS011;24531;45.502;12.238;2023-02-11T10:13:32;29.88;;;20.15;;
38783;SDS011;24531;45.502;12.238;2023-02-11T10:24:18;29.05;;;16.65;;
38783;SDS011;24531;45.502;12.238;2023-02-11T10:26:44;27.75;;;17.48;;
38783;SDS011;24531;45.502;12.238;2023-02-11T10:31:52;25.05;;;15.95;;
38783;SDS011;24531;45.502;12.238;2023-02-11T10:34:18;28.65;;;17.15;;
38783;SDS011;24531;45.502;12.238;2023-02-11T10:36:43;28.08;;;17.00;;
38783;SDS011;24531;45.502;12.238;2023-02-11T10:39:24;24.05;;;16.60;;
38783;SDS011;24531;45.502;12.238;2023-02-11T10:42:01;25.63;;;15.63;;
38783;SDS011;24531;45.502;12.238;2023-02-11T10:44:34;26.33;;;17.08;;
38783;SDS011;24531;45.502;12.238;2023-02-11T10:47:12;27.63;;;17.27;;
38783;SDS011;24531;45.502;12.238;2023-02-11T10:49:43;31.98;;;17.83;;
38783;SDS011;24531;45.502;12.238;2023-02-11T10:52:16;30.08;;;16.95;;
38783;SDS011;24531;45.502;12.238;2023-02-11T10:55:26;28.70;;;17.10;;
38783;SDS011;24531;45.502;12.238;2023-02-11T10:57:34;31.95;;;16.55;;
38783;SDS011;24531;45.502;12.238;2023-02-11T11:00:22;30.98;;;17.15;;
38783;SDS011;24531;45.502;12.238;2023-02-11T11:02:57;27.65;;;15.32;;
38783;SDS011;24531;45.502;12.238;2023-02-11T11:05:36;24.23;;;16.33;;
38783;SDS011;24531;45.502;12.238;2023-02-11T11:08:14;25.75;;;15.07;;
38783;SDS011;24531;45.502;12.238;2023-02-11T11:13:22;27.15;;;15.50;;
38783;SDS011;24531;45.502;12.238;2023-02-11T11:18:39;24.55;;;14.98;;
38783;SDS011;24531;45.502;12.238;2023-02-11T11:21:10;23.83;;;14.73;;
38783;SDS011;24531;45.502;12.238;2023-02-11T11:23:36;21.92;;;13.63;;
38783;SDS011;24531;45.502;12.238;2023-02-11T11:26:04;30.13;;;15.88;;
38783;SDS011;24531;45.502;12.238;2023-02-11T11:28:39;29.52;;;16.08;;
38783;SDS011;24531;45.502;12.238;2023-02-11T11:31:19;26.08;;;15.65;;
38783;SDS011;24531;45.502;12.238;2023-02-11T11:33:48;25.95;;;16.83;;
38783;SDS011;24531;45.502;12.238;2023-02-11T11:36:18;26.42;;;16.15;;
38783;SDS011;24531;45.502;12.238;2023-02-11T11:38:51;27.50;;;16.63;;
38783;SDS011;24531;45.502;12.238;2023-02-11T11:41:31;27.90;;;17.23;;
38783;SDS011;24531;45.502;12.238;2023-02-11T11:46:33;29.75;;;16.30;;
38783;SDS011;24531;45.502;12.238;2023-02-11T11:54:41;25.48;;;15.57;;
38783;SDS011;24531;45.502;12.238;2023-02-11T11:57:17;24.27;;;14.82;;
38783;SDS011;24531;45.502;12.238;2023-02-11T11:59:46;20.42;;;14.25;;
38783;SDS011;24531;45.502;12.238;2023-02-11T12:07:49;23.42;;;14.68;;
38783;SDS011;24531;45.502;12.238;2023-02-11T12:13:30;23.23;;;14.02;;
38783;SDS011;24531;45.502;12.238;2023-02-11T12:16:48;24.02;;;15.48;;
38783;SDS011;24531;45.502;12.238;2023-02-11T12:21:54;23.33;;;14.55;;
38783;SDS011;24531;45.502;12.238;2023-02-11T12:24:38;24.58;;;15.27;;
38783;SDS011;24531;45.502;12.238;2023-02-11T12:32:56;25.92;;;13.88;;
38783;SDS011;24531;45.502;12.238;2023-02-11T12:35:46;22.90;;;15.07;;
38783;SDS011;24531;45.502;12.238;2023-02-11T12:46:26;27.95;;;15.88;;
38783;SDS011;24531;45.502;12.238;2023-02-11T12:49:06;26.73;;;16.48;;
38783;SDS011;24531;45.502;12.238;2023-02-11T12:52:27;19.88;;;13.98;;
38783;SDS011;24531;45.502;12.238;2023-02-11T12:54:48;20.63;;;13.95;;
38783;SDS011;24531;45.502;12.238;2023-02-11T12:57:25;22.70;;;14.13;;
38783;SDS011;24531;45.502;12.238;2023-02-11T13:00:13;22.02;;;14.25;;
38783;SDS011;24531;45.502;12.238;2023-02-11T13:02:53;21.08;;;14.50;;
38783;SDS011;24531;45.502;12.238;2023-02-11T13:05:32;21.35;;;14.18;;
38783;SDS011;24531;45.502;12.238;2023-02-11T13:08:22;19.02;;;13.13;;
38783;SDS011;24531;45.502;12.238;2023-02-11T13:10:54;21.08;;;12.90;;
38783;SDS011;24531;45.502;12.238;2023-02-11T13:13:28;18.80;;;12.23;;
38783;SDS011;24531;45.502;12.238;2023-02-11T13:16:02;21.05;;;12.25;;
38783;SDS011;24531;45.502;12.238;2023-02-11T13:21:15;20.33;;;12.50;;
38783;SDS011;24531;45.502;12.238;2023-02-11T13:29:48;21.58;;;13.13;;
38783;SDS011;24531;45.502;12.238;2023-02-11T13:37:57;18.80;;;12.88;;
38783;SDS011;24531;45.502;12.238;2023-02-11T13:40:26;24.00;;;14.38;;
38783;SDS011;24531;45.502;12.238;2023-02-11T13:42:55;26.10;;;14.60;;
38783;SDS011;24531;45.502;12.238;2023-02-11T13:48:22;25.75;;;14.93;;
38783;SDS011;24531;45.502;12.238;2023-02-11T13:50:50;22.17;;;14.90;;
38783;SDS011;24531;45.502;12.238;2023-02-11T13:53:21;21.30;;;15.05;;
38783;SDS011;24531;45.502;12.238;2023-02-11T13:55:52;25.23;;;15.57;;
38783;SDS011;24531;45.502;12.238;2023-02-11T13:58:45;23.15;;;15.48;;
38783;SDS011;24531;45.502;12.238;2023-02-11T14:01:26;25.25;;;16.48;;
38783;SDS011;24531;45.502;12.238;2023-02-11T14:07:26;22.95;;;15.63;;
38783;SDS011;24531;45.502;12.238;2023-02-11T14:13:12;24.85;;;15.82;;
38783;SDS011;24531;45.502;12.238;2023-02-11T14:18:35;25.80;;;16.48;;
38783;SDS011;24531;45.502;12.238;2023-02-11T14:21:14;25.60;;;16.20;;
38783;SDS011;24531;45.502;12.238;2023-02-11T14:23:41;24.60;;;15.90;;
38783;SDS011;24531;45.502;12.238;2023-02-11T14:26:13;24.25;;;14.55;;
38783;SDS011;24531;45.502;12.238;2023-02-11T14:28:43;27.63;;;17.40;;
38783;SDS011;24531;45.502;12.238;2023-02-11T14:31:11;23.52;;;15.82;;
38783;SDS011;24531;45.502;12.238;2023-02-11T14:36:18;26.63;;;16.58;;
38783;SDS011;24531;45.502;12.238;2023-02-11T14:42:04;27.73;;;16.85;;
38783;SDS011;24531;45.502;12.238;2023-02-11T14:44:36;26.85;;;17.77;;
38783;SDS011;24531;45.502;12.238;2023-02-11T14:47:02;27.38;;;17.80;;
38783;SDS011;24531;45.502;12.238;2023-02-11T14:49:30;28.00;;;17.30;;
38783;SDS011;24531;45.502;12.238;2023-02-11T14:52:45;25.20;;;18.05;;
38783;SDS011;24531;45.502;12.238;2023-02-11T14:55:04;29.63;;;18.25;;
38783;SDS011;24531;45.502;12.238;2023-02-11T14:57:40;27.33;;;17.65;;
38783;SDS011;24531;45.502;12.238;2023-02-11T15:00:21;31.02;;;18.00;;
38783;SDS011;24531;45.502;12.238;2023-02-11T15:02:47;26.42;;;16.23;;
38783;SDS011;24531;45.502;12.238;2023-02-11T15:05:17;28.83;;;18.50;;
38783;SDS011;24531;45.502;12.238;2023-02-11T15:07:46;18.63;;;12.75;;
38783;SDS011;24531;45.502;12.238;2023-02-11T15:10:16;26.25;;;17.50;;
38783;SDS011;24531;45.502;12.238;2023-02-11T15:12:49;28.10;;;18.52;;
38783;SDS011;24531;45.502;12.238;2023-02-11T15:15:15;30.30;;;19.08;;
38783;SDS011;24531;45.502;12.238;2023-02-11T15:17:41;27.77;;;19.02;;
38783;SDS011;24531;45.502;12.238;2023-02-11T15:20:14;32.08;;;20.08;;
38783;SDS011;24531;45.502;12.238;2023-02-11T15:22:47;30.55;;;19.83;;
38783;SDS011;24531;45.502;12.238;2023-02-11T15:27:54;26.50;;;17.52;;
38783;SDS011;24531;45.502;12.238;2023-02-11T15:32:56;34.28;;;20.85;;
38783;SDS011;24531;45.502;12.238;2023-02-11T15:35:34;39.58;;;20.83;;
38783;SDS011;24531;45.502;12.238;2023-02-11T15:38:04;31.65;;;19.33;;
38783;SDS011;24531;45.502;12.238;2023-02-11T15:40:30;30.95;;;20.38;;
38783;SDS011;24531;45.502;12.238;2023-02-11T15:43:01;34.70;;;20.33;;
38783;SDS011;24531;45.502;12.238;2023-02-11T15:45:30;39.90;;;23.83;;
38783;SDS011;24531;45.502;12.238;2023-02-11T15:48:15;35.15;;;22.48;;
38783;SDS011;24531;45.502;12.238;2023-02-11T15:50:42;33.40;;;21.50;;
38783;SDS011;24531;45.502;12.238;2023-02-11T15:55:59;42.85;;;23.27;;
38783;SDS011;24531;45.502;12.238;2023-02-11T15:58:41;42.80;;;24.27;;
38783;SDS011;24531;45.502;12.238;2023-02-11T16:01:09;41.97;;;25.67;;
38783;SDS011;24531;45.502;12.238;2023-02-11T16:03:36;43.13;;;26.30;;
38783;SDS011;24531;45.502;12.238;2023-02-11T16:09:00;43.08;;;25.65;;
38783;SDS011;24531;45.502;12.238;2023-02-11T16:16:52;42.45;;;26.00;;
38783;SDS011;24531;45.502;12.238;2023-02-11T16:19:28;46.20;;;27.50;;
38783;SDS011;24531;45.502;12.238;2023-02-11T16:22:05;46.88;;;27.52;;
38783;SDS011;24531;45.502;12.238;2023-02-11T16:24:52;48.25;;;27.80;;
38783;SDS011;24531;45.502;12.238;2023-02-11T16:27:21;47.35;;;26.75;;
38783;SDS011;24531;45.502;12.238;2023-02-11T16:29:57;48.10;;;28.00;;
38783;SDS011;24531;45.502;12.238;2023-02-11T16:32:24;48.53;;;27.70;;
38783;SDS011;24531;45.502;12.238;2023-02-11T16:34:54;45.72;;;27.83;;
38783;SDS011;24531;45.502;12.238;2023-02-11T16:37:22;48.03;;;27.17;;